Time;durP1;ratioP1;P1;durP2;ratioP2;P2;SDS_P1;SDS_P2;PMS_P1;PMS_P2;Temp;Humidity;BMP_temperature;BMP_pressure;BME280_temperature;BME280_humidity;BME280_pressure;Samples;Min_cycle;Max_cycle;Signal;HPM_P1;HPM_P2
2024/04/01 00:01:32;;;;;;;7.70;6.00;;;12.90;99.90;;;;;;5053965;28;20191;-71
2024/04/01 00:04:03;;;;;;;6.13;5.72;;;12.90;99.90;;;;;;5054049;28;20256;-71
2024/04/01 00:06:31;;;;;;;6.55;5.97;;;12.90;99.90;;;;;;5054005;28;20199;-71
2024/04/01 00:09:02;;;;;;;6.75;5.80;;;12.90;99.90;;;;;;5053999;28;20282;-71
2024/04/01 00:11:34;;;;;;;10.20;6.13;;;12.90;99.90;;;;;;5054110;28;20208;-71
2024/04/01 00:14:03;;;;;;;7.55;4.95;;;12.80;99.90;;;;;;5054040;28;20226;-71
2024/04/01 00:16:32;;;;;;;5.60;5.20;;;12.80;99.90;;;;;;5053591;28;20215;-71
2024/04/01 00:19:00;;;;;;;5.10;4.65;;;12.80;99.90;;;;;;5053573;28;20222;-71
2024/04/01 00:21:37;;;;;;;6.32;5.10;;;12.80;99.90;;;;;;5053646;28;20231;-71
2024/04/01 00:24:10;;;;;;;6.68;5.00;;;12.80;99.90;;;;;;5053604;28;20549;-71
2024/04/01 00:26:39;;;;;;;5.25;4.82;;;12.80;99.90;;;;;;5053708;28;20187;-71
2024/04/01 00:29:10;;;;;;;6.00;5.20;;;12.70;99.90;;;;;;5053779;28;20206;-71
2024/04/01 00:31:42;;;;;;;5.68;5.18;;;12.70;99.90;;;;;;5053711;28;20187;-71
2024/04/01 00:34:08;;;;;;;6.75;5.05;;;12.70;99.90;;;;;;5053195;28;20179;-71
2024/04/01 00:36:36;;;;;;;5.35;4.93;;;12.70;99.90;;;;;;5053485;28;20272;-71
2024/04/01 00:39:16;;;;;;;5.15;4.43;;;12.60;99.90;;;;;;5053535;28;20245;-71
2024/04/01 00:41:45;;;;;;;5.60;4.50;;;12.60;99.90;;;;;;5053265;28;20628;-71
2024/04/01 00:44:15;;;;;;;7.82;4.60;;;12.60;99.90;;;;;;5053444;28;20283;-71
2024/04/01 00:46:45;;;;;;;4.90;4.57;;;12.60;99.90;;;;;;5053349;28;20207;-71
2024/04/01 00:49:21;;;;;;;4.65;4.35;;;12.50;99.90;;;;;;5053430;28;20674;-71
2024/04/01 00:51:55;;;;;;;4.40;4.10;;;12.50;99.90;;;;;;5053001;28;20198;-71
2024/04/01 00:54:27;;;;;;;4.65;4.20;;;12.50;99.90;;;;;;5052995;28;20218;-71
2024/04/01 00:57:00;;;;;;;4.50;4.03;;;12.50;99.90;;;;;;5053350;28;20253;-71
2024/04/01 00:59:32;;;;;;;4.45;4.00;;;12.40;99.90;;;;;;5053411;28;20274;-71
2024/04/01 01:02:00;;;;;;;4.22;3.50;;;12.50;99.90;;;;;;5053344;28;20288;-71
2024/04/01 01:04:31;;;;;;;5.07;3.70;;;12.50;99.90;;;;;;5053230;28;20195;-71
2024/04/01 01:07:04;;;;;;;4.32;3.97;;;12.40;99.90;;;;;;5052755;28;20316;-71
2024/04/01 01:09:35;;;;;;;3.42;3.20;;;12.40;99.90;;;;;;5052966;28;20271;-71
2024/04/01 01:12:13;;;;;;;5.25;3.40;;;12.40;99.90;;;;;;5053417;28;20183;-71
2024/04/01 01:14:58;;;;;;;2.90;2.72;;;12.40;99.90;;;;;;5053154;28;20179;-71
2024/04/01 01:17:30;;;;;;;5.38;3.70;;;12.40;99.90;;;;;;5052647;28;20635;-71
2024/04/01 01:20:01;;;;;;;6.05;3.25;;;12.40;99.90;;;;;;5052714;28;20231;-70
2024/04/01 01:22:36;;;;;;;3.60;3.40;;;12.30;99.90;;;;;;5052831;28;20702;-71
2024/04/01 01:25:09;;;;;;;5.97;3.78;;;12.40;99.90;;;;;;5052696;28;20194;-70
2024/04/01 01:27:42;;;;;;;4.40;3.63;;;12.40;99.90;;;;;;5052837;28;20810;-71
2024/04/01 01:30:15;;;;;;;3.72;3.25;;;12.30;99.90;;;;;;5052736;28;20180;-71
2024/04/01 01:32:56;;;;;;;7.22;3.33;;;12.30;99.90;;;;;;5053146;28;20298;-71
2024/04/01 01:35:26;;;;;;;5.38;3.63;;;12.30;99.90;;;;;;5052918;28;20211;-71
2024/04/01 01:37:59;;;;;;;3.70;3.40;;;12.30;99.90;;;;;;5052702;28;20253;-71
2024/04/01 01:40:31;;;;;;;3.65;3.45;;;12.30;99.90;;;;;;5053066;28;20220;-71
2024/04/01 01:43:13;;;;;;;3.80;3.53;;;12.30;99.90;;;;;;5052944;28;20195;-71
2024/04/01 01:45:44;;;;;;;4.03;3.80;;;12.30;99.90;;;;;;5051886;28;20195;-71
2024/04/01 01:48:23;;;;;;;4.63;3.88;;;12.20;99.90;;;;;;5056805;28;20191;-71
2024/04/01 01:50:55;;;;;;;5.75;3.90;;;12.20;99.90;;;;;;5056738;28;20222;-71
2024/04/01 01:53:27;;;;;;;3.95;3.65;;;12.20;99.90;;;;;;5056767;28;20527;-70
2024/04/01 01:56:05;;;;;;;3.63;3.28;;;12.20;99.90;;;;;;5056518;28;20253;-71
2024/04/01 01:58:32;;;;;;;4.75;3.90;;;12.20;99.90;;;;;;5056573;28;20517;-71
2024/04/01 02:01:12;;;;;;;4.03;3.60;;;12.20;99.90;;;;;;5056538;28;20629;-71
2024/04/01 02:03:47;;;;;;;4.53;3.75;;;12.10;99.90;;;;;;5056398;28;20274;-71
2024/04/01 02:06:16;;;;;;;4.15;3.35;;;12.10;99.90;;;;;;5056140;28;20704;-71
2024/04/01 02:08:48;;;;;;;3.60;3.40;;;12.10;99.90;;;;;;5056442;28;20215;-71
2024/04/01 02:11:23;;;;;;;6.38;3.75;;;12.00;99.90;;;;;;5055948;28;20238;-71
2024/04/01 02:13:59;;;;;;;3.63;3.42;;;12.00;99.90;;;;;;5056034;28;20208;-71
2024/04/01 02:16:34;;;;;;;5.50;3.58;;;12.00;99.90;;;;;;5055659;28;20299;-71
2024/04/01 02:19:05;;;;;;;3.28;3.08;;;12.00;99.90;;;;;;5056208;28;20252;-71
2024/04/01 02:21:31;;;;;;;5.72;4.00;;;12.00;99.90;;;;;;5056256;28;20235;-71
2024/04/01 02:24:03;;;;;;;4.00;3.20;;;12.00;99.90;;;;;;5056184;28;20203;-71
2024/04/01 02:26:29;;;;;;;5.82;3.50;;;12.00;99.90;;;;;;5056078;28;20283;-71
2024/04/01 02:29:00;;;;;;;5.07;3.42;;;12.00;99.90;;;;;;5056299;28;20230;-71
2024/04/01 02:31:31;;;;;;;3.55;3.35;;;11.90;99.90;;;;;;5055864;28;20199;-71
2024/04/01 02:34:17;;;;;;;3.50;3.30;;;11.90;99.90;;;;;;5055629;28;20194;-71
2024/04/01 02:36:48;;;;;;;3.78;3.47;;;11.90;99.90;;;;;;5054817;28;20274;-71
2024/04/01 02:39:17;;;;;;;3.78;3.47;;;11.90;99.90;;;;;;5055869;28;20570;-71
2024/04/01 02:41:46;;;;;;;3.88;3.58;;;11.90;99.90;;;;;;5055892;28;20246;-71
2024/04/01 02:44:30;;;;;;;3.72;3.30;;;11.80;99.90;;;;;;5055638;28;20644;-71
2024/04/01 02:46:56;;;;;;;3.72;3.42;;;11.80;99.90;;;;;;5055589;28;20530;-71
2024/04/01 02:49:25;;;;;;;3.78;3.47;;;11.80;99.90;;;;;;5055190;28;20195;-71
2024/04/01 02:51:56;;;;;;;3.80;3.50;;;11.80;99.90;;;;;;5055608;28;20592;-71
2024/04/01 02:54:25;;;;;;;3.60;3.30;;;11.80;99.90;;;;;;5055837;28;20573;-71
2024/04/01 02:56:56;;;;;;;3.95;3.15;;;11.80;99.90;;;;;;5055062;28;20686;-71
2024/04/01 02:59:27;;;;;;;3.17;2.95;;;11.70;99.90;;;;;;5055627;28;20538;-71
2024/04/01 03:01:58;;;;;;;3.58;3.00;;;11.70;99.90;;;;;;5055392;28;20628;-71
2024/04/01 03:04:30;;;;;;;3.08;2.88;;;11.70;99.90;;;;;;5054987;28;20210;-71
2024/04/01 03:06:56;;;;;;;3.38;3.00;;;11.70;99.90;;;;;;5055341;28;20278;-71
2024/04/01 03:09:29;;;;;;;3.47;3.13;;;11.70;99.90;;;;;;5055181;28;20246;-71
2024/04/01 03:11:56;;;;;;;3.30;3.10;;;11.70;99.90;;;;;;5054919;28;20219;-71
2024/04/01 03:14:28;;;;;;;3.10;2.80;;;11.70;99.90;;;;;;5055027;28;20588;-71
2024/04/01 03:17:00;;;;;;;2.88;2.70;;;11.70;99.90;;;;;;5054511;28;20212;-71
2024/04/01 03:19:33;;;;;;;3.33;3.13;;;11.70;99.90;;;;;;5054716;28;20192;-71
2024/04/01 03:21:59;;;;;;;3.92;3.50;;;11.70;99.90;;;;;;5054845;28;20203;-71
2024/04/01 03:24:31;;;;;;;3.60;3.40;;;11.70;99.90;;;;;;5054909;28;20199;-71
2024/04/01 03:27:02;;;;;;;3.53;3.33;;;11.70;99.90;;;;;;5055072;28;20184;-71
2024/04/01 03:29:30;;;;;;;3.97;3.70;;;11.70;99.90;;;;;;5054895;28;20211;-71
2024/04/01 03:32:06;;;;;;;4.18;3.33;;;11.60;99.90;;;;;;5054484;28;20195;-71
2024/04/01 03:34:34;;;;;;;3.70;3.50;;;11.60;99.90;;;;;;5054402;28;20443;-71
2024/04/01 03:37:08;;;;;;;3.50;3.20;;;11.70;99.90;;;;;;5054572;28;20266;-71
2024/04/01 03:39:39;;;;;;;5.68;3.25;;;11.70;99.90;;;;;;5054790;28;20207;-71
2024/04/01 03:42:06;;;;;;;3.80;3.50;;;11.70;99.90;;;;;;5054889;28;20283;-71
2024/04/01 03:44:39;;;;;;;3.83;3.63;;;11.70;99.90;;;;;;5054785;28;20217;-71
2024/04/01 03:47:11;;;;;;;3.55;3.35;;;11.70;99.90;;;;;;5054082;28;20180;-71
2024/04/01 03:49:43;;;;;;;4.63;4.05;;;11.70;99.90;;;;;;5054556;28;20187;-71
2024/04/01 03:52:10;;;;;;;3.78;3.38;;;11.60;99.90;;;;;;5054119;28;20701;-71
2024/04/01 03:54:44;;;;;;;3.97;3.67;;;11.60;99.90;;;;;;5054075;28;20200;-71
2024/04/01 03:57:16;;;;;;;4.00;3.70;;;11.60;99.90;;;;;;5054320;28;20226;-71
2024/04/01 03:59:45;;;;;;;3.83;3.63;;;11.60;99.90;;;;;;5054406;28;20183;-71
2024/04/01 04:02:21;;;;;;;4.18;3.50;;;11.60;99.90;;;;;;5054278;28;20253;-71
2024/04/01 04:04:47;;;;;;;3.55;3.10;;;11.60;99.90;;;;;;5053919;28;20191;-71
2024/04/01 04:07:20;;;;;;;3.33;3.13;;;11.50;99.90;;;;;;5054178;28;20202;-71
2024/04/01 04:09:49;;;;;;;8.65;4.07;;;11.50;99.90;;;;;;5053458;28;20199;-71
2024/04/01 04:12:23;;;;;;;3.65;3.35;;;11.50;99.90;;;;;;5054005;28;20245;-71
2024/04/01 04:14:55;;;;;;;6.72;3.80;;;11.50;99.90;;;;;;5054035;28;20187;-71
2024/04/01 04:17:25;;;;;;;3.53;3.30;;;11.50;99.90;;;;;;5053832;28;20234;-71
2024/04/01 04:19:58;;;;;;;3.70;3.40;;;11.50;99.90;;;;;;5053526;28;20245;-71
2024/04/01 04:22:32;;;;;;;5.65;3.78;;;11.50;99.90;;;;;;5053593;28;20230;-71
2024/04/01 04:25:00;;;;;;;3.47;3.28;;;11.40;99.90;;;;;;5053961;28;20238;-71
2024/04/01 04:27:32;;;;;;;4.50;3.65;;;11.40;99.90;;;;;;5053911;28;20213;-71
2024/04/01 04:29:59;;;;;;;3.72;3.00;;;11.40;99.90;;;;;;5053864;28;20184;-71
2024/04/01 04:32:33;;;;;;;4.45;3.63;;;11.40;99.90;;;;;;5053424;28;20200;-71
2024/04/01 04:35:05;;;;;;;3.92;3.53;;;11.40;99.90;;;;;;5053386;28;20234;-70
2024/04/01 04:37:38;;;;;;;4.03;3.53;;;11.40;99.90;;;;;;5053623;28;20227;-71
2024/04/01 04:40:10;;;;;;;3.58;3.38;;;11.40;99.90;;;;;;5053681;28;20230;-71
2024/04/01 04:42:54;;;;;;;3.60;3.40;;;11.40;99.90;;;;;;5053216;28;20713;-71
2024/04/01 04:45:22;;;;;;;4.70;3.42;;;11.40;99.90;;;;;;5053596;28;20229;-71
2024/04/01 04:47:54;;;;;;;4.85;3.53;;;11.30;99.90;;;;;;5053104;28;20214;-71
2024/04/01 04:50:21;;;;;;;9.82;3.47;;;11.30;99.90;;;;;;5053128;28;20219;-71
2024/04/01 04:53:05;;;;;;;3.88;3.42;;;11.30;99.90;;;;;;5053277;28;20217;-71
2024/04/01 04:55:39;;;;;;;4.90;3.53;;;11.30;99.90;;;;;;5052968;28;20184;-71
2024/04/01 04:58:10;;;;;;;3.67;3.47;;;11.30;99.90;;;;;;5052984;28;20274;-71
2024/04/01 05:00:36;;;;;;;3.58;3.38;;;11.30;99.90;;;;;;5053348;28;20187;-71
2024/04/01 05:03:17;;;;;;;3.92;3.58;;;11.30;99.90;;;;;;5052973;28;20254;-71
2024/04/01 05:06:03;;;;;;;4.30;4.10;;;11.30;99.90;;;;;;5053479;28;20199;-70
2024/04/01 05:08:34;;;;;;;4.13;3.92;;;11.30;99.90;;;;;;5052943;28;20183;-71
2024/04/01 05:11:08;;;;;;;5.25;3.88;;;11.20;99.90;;;;;;5053025;28;20180;-71
2024/04/01 05:13:41;;;;;;;3.75;3.55;;;11.20;99.90;;;;;;5053273;28;20191;-71
2024/04/01 05:16:15;;;;;;;4.07;3.40;;;11.20;99.90;;;;;;5052609;28;20238;-71
2024/04/01 05:18:55;;;;;;;4.30;4.00;;;11.20;99.90;;;;;;5052859;28;20180;-71
2024/04/01 05:21:24;;;;;;;3.88;3.58;;;11.20;99.90;;;;;;5055979;28;20298;-71
2024/04/01 05:23:52;;;;;;;4.50;3.58;;;11.20;99.90;;;;;;4534814;22;20526;-72
2024/04/01 05:26:20;;;;;;;3.78;3.58;;;11.20;99.90;;;;;;5035086;28;20676;-74
2024/04/01 05:28:46;;;;;;;3.72;3.42;;;11.20;99.90;;;;;;5036664;28;20196;-73
2024/04/01 05:31:12;;;;;;;5.95;3.63;;;11.20;99.90;;;;;;5036336;28;20294;-73
2024/04/01 05:33:40;;;;;;;4.00;3.65;;;11.20;99.90;;;;;;5036413;28;20215;-73
2024/04/01 05:36:06;;;;;;;3.53;3.33;;;11.20;99.90;;;;;;5036483;28;20683;-72
2024/04/01 05:38:33;;;;;;;3.70;3.50;;;11.20;99.90;;;;;;5036603;28;20200;-75
2024/04/01 05:40:59;;;;;;;4.30;3.40;;;11.20;99.90;;;;;;5036387;28;20236;-73
2024/04/01 05:43:28;;;;;;;3.80;3.55;;;11.20;99.90;;;;;;5036057;28;20283;-74
2024/04/01 05:45:54;;;;;;;3.92;3.72;;;11.20;99.90;;;;;;5036258;28;20291;-74
2024/04/01 05:48:21;;;;;;;5.13;3.22;;;11.20;99.90;;;;;;5036127;28;20270;-73
2024/04/01 05:50:51;;;;;;;3.20;3.00;;;11.20;99.90;;;;;;5036070;28;20196;-74
2024/04/01 05:53:18;;;;;;;3.00;2.80;;;11.20;99.90;;;;;;5036210;28;20266;-74
2024/04/01 05:55:45;;;;;;;4.13;3.75;;;11.20;99.90;;;;;;5035721;28;20265;-74
2024/04/01 05:58:12;;;;;;;3.40;3.20;;;11.20;99.90;;;;;;5036095;28;20204;-73
2024/04/01 06:00:39;;;;;;;3.00;2.83;;;11.20;99.90;;;;;;5035774;28;20287;-74
2024/04/01 06:03:06;;;;;;;3.85;3.25;;;11.20;99.90;;;;;;5035758;28;20699;-73
2024/04/01 06:05:32;;;;;;;3.38;3.17;;;11.20;99.90;;;;;;5035975;28;20283;-73
2024/04/01 06:08:06;;;;;;;5.15;3.00;;;11.20;99.90;;;;;;5035973;28;20199;-74
2024/04/01 06:10:36;;;;;;;3.10;2.97;;;11.20;99.90;;;;;;5035954;28;20193;-74
2024/04/01 06:13:05;;;;;;;3.72;3.40;;;11.20;99.90;;;;;;5036014;28;20283;-74
2024/04/01 06:15:31;;;;;;;3.20;3.00;;;11.20;99.90;;;;;;5035546;28;20196;-74
2024/04/01 06:17:59;;;;;;;3.67;3.40;;;11.20;99.90;;;;;;5035586;28;20220;-74
2024/04/01 06:20:26;;;;;;;3.33;2.83;;;11.20;99.90;;;;;;5035439;28;20647;-73
2024/04/01 06:22:53;;;;;;;3.50;3.30;;;11.20;99.90;;;;;;5035421;28;20200;-74
2024/04/01 06:25:20;;;;;;;3.58;3.38;;;11.20;99.90;;;;;;5035758;28;20243;-74
2024/04/01 06:27:52;;;;;;;3.75;3.55;;;11.20;99.90;;;;;;5035789;28;20204;-73
2024/04/01 06:30:22;;;;;;;3.85;3.65;;;11.20;99.90;;;;;;5035713;28;20231;-73
2024/04/01 06:32:49;;;;;;;3.83;3.53;;;11.20;99.90;;;;;;5034577;28;20180;-73
2024/04/01 06:35:17;;;;;;;4.63;3.60;;;11.20;99.90;;;;;;5035079;28;20870;-74
2024/04/01 06:37:44;;;;;;;3.95;3.65;;;11.20;99.90;;;;;;5035202;28;20575;-75
2024/04/01 06:40:10;;;;;;;3.28;3.08;;;11.20;99.90;;;;;;5035234;28;20227;-74
2024/04/01 06:42:39;;;;;;;3.40;3.20;;;11.20;99.90;;;;;;5035148;28;20678;-73
2024/04/01 06:45:05;;;;;;;3.78;3.58;;;11.20;99.90;;;;;;5035414;28;20227;-74
2024/04/01 06:47:34;;;;;;;4.43;3.33;;;11.20;99.90;;;;;;5035066;28;20668;-73
2024/04/01 06:50:02;;;;;;;2.88;2.78;;;11.20;99.90;;;;;;5035123;28;20243;-73
2024/04/01 06:52:30;;;;;;;3.67;3.03;;;11.20;99.90;;;;;;5034932;28;20196;-73
2024/04/01 06:54:57;;;;;;;2.83;2.70;;;11.20;99.90;;;;;;5035249;28;20270;-74
2024/04/01 06:57:24;;;;;;;3.65;3.17;;;11.20;99.90;;;;;;5035235;28;20216;-74
2024/04/01 06:59:50;;;;;;;3.13;2.80;;;11.20;99.90;;;;;;5034874;28;20200;-74
2024/04/01 07:02:17;;;;;;;3.08;2.70;;;11.10;99.90;;;;;;5035250;28;20263;-74
2024/04/01 07:04:43;;;;;;;2.97;2.88;;;11.20;99.90;;;;;;5034979;28;20638;-74
2024/04/01 07:07:10;;;;;;;3.25;3.05;;;11.20;99.90;;;;;;5034794;28;20287;-74
2024/04/01 07:09:38;;;;;;;3.03;2.83;;;11.10;99.90;;;;;;5035081;28;20262;-74
2024/04/01 07:12:05;;;;;;;2.80;2.60;;;11.10;99.90;;;;;;5034874;28;20200;-73
2024/04/01 07:14:35;;;;;;;3.60;2.78;;;11.10;99.90;;;;;;5035257;28;20647;-75
2024/04/01 07:17:01;;;;;;;2.65;2.50;;;11.10;99.90;;;;;;5034640;28;20208;-74
2024/04/01 07:19:28;;;;;;;2.60;2.50;;;11.10;99.90;;;;;;5035139;28;20196;-74
2024/04/01 07:21:54;;;;;;;2.78;2.58;;;11.10;99.90;;;;;;5034645;28;20679;-74
2024/04/01 07:24:21;;;;;;;2.70;2.60;;;11.10;99.90;;;;;;5034343;28;20259;-74
2024/04/01 07:26:48;;;;;;;2.78;2.60;;;11.20;99.90;;;;;;5034749;28;20200;-72
2024/04/01 07:29:15;;;;;;;3.45;3.15;;;11.10;99.90;;;;;;5034599;28;20207;-73
2024/04/01 07:31:46;;;;;;;2.70;2.60;;;11.10;99.90;;;;;;5028548;28;20569;-74
2024/04/01 07:34:13;;;;;;;3.22;3.03;;;11.10;99.90;;;;;;5023059;28;20188;-73
2024/04/01 07:36:39;;;;;;;3.33;3.13;;;11.20;99.90;;;;;;5024786;28;20266;-74
2024/04/01 07:39:06;;;;;;;3.55;2.78;;;11.20;99.90;;;;;;5021955;28;20268;-74
2024/04/01 07:41:33;;;;;;;3.40;3.20;;;11.20;99.90;;;;;;5024860;28;20252;-75
2024/04/01 07:44:01;;;;;;;3.70;3.50;;;11.20;99.90;;;;;;5022197;28;20316;-74
2024/04/01 07:46:28;;;;;;;3.60;3.30;;;11.20;99.90;;;;;;5023136;28;20219;-73
2024/04/01 07:48:53;;;;;;;4.00;3.58;;;11.20;99.90;;;;;;5024335;28;20192;-74
2024/04/01 07:51:20;;;;;;;4.18;3.92;;;11.30;99.90;;;;;;5022893;28;20189;-74
2024/04/01 07:53:46;;;;;;;3.65;3.45;;;11.20;99.90;;;;;;5023152;28;20196;-74
2024/04/01 07:56:13;;;;;;;4.75;3.50;;;11.30;99.90;;;;;;5024695;28;20200;-73
2024/04/01 07:58:39;;;;;;;3.95;3.47;;;11.30;99.90;;;;;;5022632;28;20276;-74
2024/04/01 08:01:08;;;;;;;3.85;3.58;;;11.30;99.90;;;;;;5024364;28;20283;-74
2024/04/01 08:03:35;;;;;;;4.00;3.80;;;11.30;99.90;;;;;;5023809;28;20232;-74
2024/04/01 08:06:01;;;;;;;4.07;3.80;;;11.40;99.90;;;;;;5014584;28;20292;-74
2024/04/01 08:11:14;;;;;;;4.93;4.68;;;11.40;99.90;;;;;;5014411;28;20193;-74
2024/04/01 08:13:40;;;;;;;4.57;4.38;;;11.40;99.90;;;;;;5013420;28;20287;-74
2024/04/01 08:16:08;;;;;;;4.63;4.32;;;11.40;99.90;;;;;;5013235;28;20284;-74
2024/04/01 08:18:35;;;;;;;4.88;4.57;;;11.40;99.90;;;;;;5021088;28;20220;-74
2024/04/01 08:21:02;;;;;;;4.70;4.50;;;11.40;99.90;;;;;;5022853;28;20213;-74
2024/04/01 08:23:43;;;;;;;7.45;4.78;;;11.50;99.90;;;;;;5021582;28;20213;-73
2024/04/01 08:26:10;;;;;;;4.80;4.60;;;11.50;99.90;;;;;;5012869;28;20315;-74
2024/04/01 08:28:36;;;;;;;4.90;4.70;;;11.50;99.90;;;;;;5013057;28;20200;-72
2024/04/01 08:31:03;;;;;;;5.00;4.80;;;11.60;99.90;;;;;;5015685;28;20201;-73
2024/04/01 08:33:30;;;;;;;4.93;4.72;;;11.60;99.90;;;;;;5018056;28;20220;-73
2024/04/01 08:35:57;;;;;;;5.68;5.03;;;11.60;99.90;;;;;;5020995;28;20213;-73
2024/04/01 08:38:23;;;;;;;5.25;4.95;;;11.60;99.90;;;;;;5015675;28;20220;-73
2024/04/01 08:40:56;;;;;;;5.82;5.43;;;11.60;99.90;;;;;;5013285;28;20204;-72
2024/04/01 08:43:33;;;;;;;4.88;4.68;;;11.70;99.90;;;;;;5014433;28;20606;-74
2024/04/01 08:46:00;;;;;;;5.55;5.25;;;11.70;99.90;;;;;;5013160;28;20184;-72
2024/04/01 08:48:29;;;;;;;5.90;5.60;;;11.70;99.90;;;;;;5015486;28;20226;-74
2024/04/01 08:51:02;;;;;;;5.57;5.28;;;11.70;99.90;;;;;;5018385;28;20196;-74
2024/04/01 08:53:54;;;;;;;5.85;5.45;;;11.70;99.90;;;;;;5022737;28;20272;-75
2024/04/01 08:56:21;;;;;;;7.32;5.60;;;11.70;99.90;;;;;;5031518;28;20192;-73
2024/04/01 08:58:47;;;;;;;6.22;5.85;;;11.70;99.90;;;;;;5032797;28;20296;-74
2024/04/01 09:01:14;;;;;;;5.63;5.28;;;11.70;99.90;;;;;;5029596;28;20279;-74
2024/04/01 09:03:40;;;;;;;5.00;4.80;;;11.70;99.90;;;;;;5018246;28;20224;-73
2024/04/01 09:06:08;;;;;;;6.35;5.93;;;11.70;99.90;;;;;;5021516;28;20266;-74
2024/04/01 09:08:34;;;;;;;5.60;5.20;;;11.70;99.90;;;;;;5011136;28;20255;-73
2024/04/01 09:11:01;;;;;;;5.22;4.93;;;11.70;99.90;;;;;;5010779;28;20556;-73
2024/04/01 09:13:27;;;;;;;5.13;4.93;;;11.80;99.90;;;;;;5013012;28;20251;-73
2024/04/01 09:15:54;;;;;;;5.50;5.20;;;11.70;99.90;;;;;;5012825;28;20613;-74
2024/04/01 09:18:20;;;;;;;5.90;5.50;;;11.70;99.90;;;;;;5012528;28;20220;-74
2024/04/01 09:20:48;;;;;;;5.30;5.00;;;11.80;99.90;;;;;;5012777;28;20201;-74
2024/04/01 09:23:15;;;;;;;5.38;4.88;;;11.80;99.90;;;;;;5012960;28;20224;-74
2024/04/01 09:25:46;;;;;;;5.30;5.00;;;11.80;99.90;;;;;;5012554;28;20234;-73
2024/04/01 09:28:13;;;;;;;4.85;4.65;;;11.80;99.90;;;;;;5012713;28;20221;-74
2024/04/01 09:30:40;;;;;;;5.20;4.80;;;11.80;99.90;;;;;;5012772;28;20224;-73
2024/04/01 09:33:11;;;;;;;5.07;4.78;;;11.90;99.90;;;;;;5013037;28;20291;-72
2024/04/01 09:35:39;;;;;;;5.13;4.93;;;12.00;99.90;;;;;;5013101;28;20197;-74
2024/04/01 09:38:04;;;;;;;5.10;4.80;;;12.10;99.90;;;;;;5012932;28;20235;-73
2024/04/01 09:40:33;;;;;;;5.13;4.80;;;12.10;99.90;;;;;;5013008;28;20659;-74
2024/04/01 09:43:00;;;;;;;4.95;4.65;;;12.00;99.90;;;;;;5012960;28;20284;-73
2024/04/01 09:45:28;;;;;;;5.20;4.90;;;12.10;99.90;;;;;;5012627;28;20293;-74
2024/04/01 09:47:54;;;;;;;5.25;4.78;;;12.10;99.90;;;;;;5012768;28;20255;-74
2024/04/01 09:50:22;;;;;;;4.88;4.57;;;12.10;99.90;;;;;;5012690;28;20200;-73
2024/04/01 09:52:48;;;;;;;4.90;4.70;;;12.20;99.90;;;;;;5012513;28;20650;-73
2024/04/01 09:55:20;;;;;;;5.50;5.10;;;12.10;99.90;;;;;;5012552;28;20237;-74
2024/04/01 09:58:27;;;;;;;5.00;4.70;;;12.20;99.90;;;;;;5012802;28;20208;-74
2024/04/01 10:01:06;;;;;;;4.40;4.20;;;12.30;99.90;;;;;;5012454;28;20193;-73
2024/04/01 10:04:29;;;;;;;4.35;4.05;;;12.30;99.90;;;;;;5012739;28;20518;-73
2024/04/01 10:07:47;;;;;;;4.68;4.47;;;12.30;99.90;;;;;;4933420;29;20691;-73
2024/04/01 10:10:37;;;;;;;4.28;4.00;;;12.30;99.90;;;;;;4922348;29;20243;-75
2024/04/01 10:13:37;;;;;;;4.13;3.92;;;12.30;99.90;;;;;;5011480;28;20205;-75
2024/04/01 10:16:28;;;;;;;4.30;4.10;;;12.30;99.90;;;;;;5015980;28;20220;-74
2024/04/01 10:19:31;;;;;;;5.00;4.70;;;12.30;99.90;;;;;;5015757;28;20244;-75
2024/04/01 10:22:33;;;;;;;4.38;4.18;;;12.30;99.90;;;;;;5015481;28;20207;-74
2024/04/01 10:25:31;;;;;;;4.32;4.13;;;12.40;99.90;;;;;;4995858;28;20239;-74
2024/04/01 10:28:25;;;;;;;4.20;4.00;;;12.40;99.90;;;;;;5015683;28;20276;-74
2024/04/01 10:31:18;;;;;;;4.60;4.30;;;12.40;99.90;;;;;;5015770;28;20251;-74
2024/04/01 10:34:17;;;;;;;4.22;4.03;;;12.40;99.90;;;;;;5015971;28;20212;-74
2024/04/01 10:37:20;;;;;;;3.70;3.50;;;12.40;99.90;;;;;;5015856;28;20185;-74
2024/04/01 10:40:16;;;;;;;3.80;3.55;;;12.40;99.90;;;;;;5015405;28;20657;-75
2024/04/01 10:43:14;;;;;;;3.55;3.40;;;12.40;99.90;;;;;;5015373;28;20546;-75
2024/04/01 10:46:23;;;;;;;3.95;3.75;;;12.50;99.90;;;;;;5015644;28;20193;-74
2024/04/01 10:49:18;;;;;;;4.13;3.83;;;12.50;99.90;;;;;;5015564;28;20562;-74
2024/04/01 10:52:13;;;;;;;3.95;3.75;;;12.50;99.90;;;;;;5015614;28;20236;-75
2024/04/01 10:54:54;;;;;;;4.65;4.25;;;12.50;99.90;;;;;;5015616;28;20652;-74
2024/04/01 10:57:55;;;;;;;3.83;3.65;;;12.40;99.90;;;;;;5015376;28;20669;-74
2024/04/01 11:00:45;;;;;;;4.13;3.88;;;12.40;99.90;;;;;;5015401;28;20204;-74
2024/04/01 11:04:01;;;;;;;4.22;4.03;;;12.40;99.90;;;;;;5015482;28;20185;-74
2024/04/01 11:07:00;;;;;;;5.18;4.78;;;12.40;99.90;;;;;;5015121;28;20220;-74
2024/04/01 11:09:47;;;;;;;5.40;4.90;;;12.40;99.90;;;;;;4999847;28;20625;-74
2024/04/01 11:12:24;;;;;;;4.38;4.07;;;12.40;99.90;;;;;;5015538;28;20523;-74
2024/04/01 11:14:54;;;;;;;5.63;5.13;;;12.30;99.90;;;;;;5015082;28;20181;-75
2024/04/01 11:17:21;;;;;;;4.65;4.28;;;12.40;99.90;;;;;;5014666;28;20380;-74
2024/04/01 11:20:14;;;;;;;4.80;4.40;;;12.30;99.90;;;;;;5014729;28;20197;-74
2024/04/01 11:22:52;;;;;;;5.07;4.63;;;12.30;99.90;;;;;;5015146;28;20263;-75
2024/04/01 11:25:32;;;;;;;5.30;4.80;;;12.40;99.90;;;;;;5014592;28;20268;-75
2024/04/01 11:28:27;;;;;;;5.65;4.95;;;12.30;99.90;;;;;;5014566;28;20184;-75
2024/04/01 11:31:01;;;;;;;4.95;4.57;;;12.40;99.90;;;;;;5014472;28;20684;-73
2024/04/01 11:33:38;;;;;;;4.50;4.10;;;12.40;99.90;;;;;;5014705;28;20196;-74
2024/04/01 11:36:12;;;;;;;6.07;3.50;;;12.40;99.90;;;;;;5014742;28;20275;-74
2024/04/01 11:38:50;;;;;;;4.43;4.07;;;12.40;99.90;;;;;;5013340;28;20922;-75
2024/04/01 11:41:20;;;;;;;5.47;4.45;;;12.50;99.90;;;;;;5014728;28;20181;-74
2024/04/01 11:43:49;;;;;;;3.78;3.17;;;12.60;99.90;;;;;;5014318;28;20653;-74
2024/04/01 11:46:16;;;;;;;3.75;3.45;;;12.50;99.90;;;;;;5014276;28;20755;-74
2024/04/01 11:48:43;;;;;;;3.45;3.15;;;12.50;99.90;;;;;;5014347;28;20201;-75
2024/04/01 11:51:11;;;;;;;4.15;3.40;;;12.50;99.90;;;;;;5014188;28;20196;-74
2024/04/01 11:53:41;;;;;;;3.90;3.60;;;12.50;99.90;;;;;;5014390;28;20301;-74
2024/04/01 11:56:07;;;;;;;3.47;3.17;;;12.50;99.90;;;;;;5014274;28;20196;-73
2024/04/01 11:58:34;;;;;;;4.38;3.28;;;12.60;99.90;;;;;;5014249;28;20271;-74
2024/04/01 12:01:01;;;;;;;4.05;3.22;;;12.60;99.90;;;;;;5014379;28;20216;-73
2024/04/01 12:03:39;;;;;;;5.25;2.53;;;12.60;99.90;;;;;;5014548;28;20193;-73
2024/04/01 12:06:07;;;;;;;6.95;2.58;;;12.70;99.90;;;;;;5014534;28;20228;-74
2024/04/01 12:08:37;;;;;;;2.50;2.40;;;12.70;99.90;;;;;;5014793;28;20197;-73
2024/04/01 12:11:05;;;;;;;2.70;2.53;;;12.70;99.90;;;;;;5014371;28;20201;-74
2024/04/01 12:13:32;;;;;;;5.18;2.55;;;12.70;99.90;;;;;;5013905;28;20549;-73
2024/04/01 12:15:59;;;;;;;2.50;2.22;;;12.70;99.90;;;;;;5013947;28;20601;-75
2024/04/01 12:18:49;;;;;;;4.60;2.47;;;12.70;99.90;;;;;;5013827;28;20224;-73
2024/04/01 12:21:18;;;;;;;3.08;2.40;;;12.80;99.90;;;;;;5013989;28;20196;-74
2024/04/01 12:23:48;;;;;;;2.70;2.50;;;12.80;99.90;;;;;;5013562;28;20197;-74
2024/04/01 12:26:17;;;;;;;4.93;2.55;;;12.90;99.90;;;;;;5013367;28;20256;-73
2024/04/01 12:28:46;;;;;;;2.53;2.20;;;12.90;99.90;;;;;;5013818;28;20283;-74
2024/04/01 12:31:13;;;;;;;3.63;2.30;;;13.00;99.90;;;;;;5013104;28;20201;-74
2024/04/01 12:33:42;;;;;;;3.42;2.30;;;13.10;99.90;;;;;;5013747;28;20538;-74
2024/04/01 12:36:09;;;;;;;4.32;2.20;;;13.10;99.90;;;;;;5013699;28;20258;-74
2024/04/01 12:38:41;;;;;;;2.50;2.30;;;13.20;99.90;;;;;;5013524;28;20668;-74
2024/04/01 12:41:17;;;;;;;2.33;2.22;;;13.30;99.90;;;;;;5011229;28;20817;-75
2024/04/01 12:43:46;;;;;;;4.38;2.53;;;13.40;99.90;;;;;;5013305;28;20192;-75
2024/04/01 12:46:17;;;;;;;3.25;2.30;;;13.50;99.90;;;;;;5013165;28;20208;-74
2024/04/01 12:48:44;;;;;;;2.30;2.10;;;13.50;99.90;;;;;;5013550;28;20204;-75
2024/04/01 12:51:16;;;;;;;3.45;2.50;;;13.60;99.90;;;;;;5013018;28;20284;-74
2024/04/01 12:54:11;;;;;;;2.10;2.00;;;13.70;99.90;;;;;;5013390;28;20220;-74
2024/04/01 12:56:50;;;;;;;4.82;2.75;;;13.70;99.90;;;;;;5012990;28;20233;-74
2024/04/01 12:59:33;;;;;;;2.67;2.47;;;13.80;99.90;;;;;;5012959;28;20259;-75
2024/04/01 13:02:14;;;;;;;2.28;2.13;;;13.80;99.90;;;;;;5013325;28;20597;-73
2024/04/01 13:04:58;;;;;;;3.47;2.00;;;13.80;99.90;;;;;;5013002;28;20243;-74
2024/04/01 13:07:35;;;;;;;2.97;2.15;;;14.00;99.90;;;;;;5013352;28;20272;-75
2024/04/01 13:10:05;;;;;;;2.03;1.92;;;14.10;99.90;;;;;;5013226;28;20280;-74
2024/04/01 13:12:41;;;;;;;2.28;2.08;;;14.10;99.90;;;;;;5012871;28;20560;-74
2024/04/01 13:15:16;;;;;;;2.05;1.88;;;14.20;99.90;;;;;;5013295;28;20195;-74
2024/04/01 13:17:54;;;;;;;3.15;2.10;;;14.30;99.90;;;;;;5012891;28;20208;-74
2024/04/01 13:20:28;;;;;;;2.20;1.80;;;14.40;99.90;;;;;;5013182;28;20196;-74